createdAt,value
2022-08-23T00:02:26.612Z,99727.31
2022-08-23T00:05:07.535Z,99723.97
2022-08-23T00:07:38.417Z,99717.09
2022-08-23T00:10:06.939Z,99722.44
2022-08-23T00:12:33.804Z,99723.47
2022-08-23T00:15:00.898Z,99718.91
2022-08-23T00:17:34.774Z,99714.41
2022-08-23T00:20:10.222Z,99721.81
2022-08-23T00:22:37.902Z,99708.19
2022-08-23T00:25:06.643Z,99714.22
2022-08-23T00:27:33.929Z,99711.72
2022-08-23T00:30:01.244Z,99709.72
2022-08-23T00:32:33.029Z,99709.03
2022-08-23T00:35:00.691Z,99701.66
2022-08-23T00:37:29.454Z,99705.50
2022-08-23T00:39:56.051Z,99708.19
2022-08-23T00:42:44.002Z,99703.81
2022-08-23T00:45:33.561Z,99703.00
2022-08-23T00:48:01.779Z,99701.16
2022-08-23T00:50:49.727Z,99697.50
2022-08-23T00:53:28.883Z,99694.81
2022-08-23T00:56:00.106Z,99702.66
2022-08-23T00:58:27.534Z,99695.63
2022-08-23T01:00:56.330Z,99702.16
2022-08-23T01:03:25.221Z,99701.31
2022-08-23T01:05:59.817Z,99704.38
2022-08-23T01:08:29.661Z,99699.00
2022-08-23T01:11:28.443Z,99697.81
2022-08-23T01:13:58.632Z,99695.63
2022-08-23T01:16:45.947Z,99688.28
2022-08-23T01:19:20.887Z,99692.94
2022-08-23T01:21:57.651Z,99697.84
2022-08-23T01:24:59.833Z,99687.44
2022-08-23T01:27:12.791Z,99695.84
2022-08-23T01:29:40.970Z,99698.69
2022-08-23T01:32:12.367Z,99690.31
2022-08-23T01:34:45.832Z,99694.81
2022-08-23T01:37:21.003Z,99692.31
2022-08-23T01:39:47.695Z,99682.03
2022-08-23T01:42:14.530Z,99686.91
2022-08-23T01:44:41.170Z,99695.28
2022-08-23T01:47:07.870Z,99691.09
2022-08-23T01:49:35.211Z,99688.06
2022-08-23T01:52:02.009Z,99690.09
2022-08-23T01:54:29.397Z,99691.28
2022-08-23T01:56:56.679Z,99687.91
2022-08-23T01:59:24.288Z,99691.44
2022-08-23T02:01:51.456Z,99687.91
2022-08-23T02:04:18.248Z,99687.91
2022-08-23T02:06:45.027Z,99692.25
2022-08-23T02:09:17.521Z,99690.41
2022-08-23T02:11:45.806Z,99696.09
2022-08-23T02:14:15.817Z,99698.94
2022-08-23T02:17:02.884Z,99694.75
2022-08-23T02:19:30.937Z,99699.13
2022-08-23T02:21:57.909Z,99696.63
2022-08-23T02:24:25.585Z,99697.44
2022-08-23T02:26:57.376Z,99696.63
2022-08-23T02:29:25.899Z,99694.75
2022-08-23T02:31:53.168Z,99693.09
2022-08-23T02:34:35.645Z,99694.09
2022-08-23T02:37:02.509Z,99693.41
2022-08-23T02:39:30.375Z,99694.59
2022-08-23T02:41:57.616Z,99694.94
2022-08-23T02:44:24.969Z,99696.94
2022-08-23T02:46:51.680Z,99695.41
2022-08-23T02:49:18.773Z,99700.94
2022-08-23T02:51:46.242Z,99694.22
2022-08-23T02:54:13.271Z,99694.38
2022-08-23T02:56:40.353Z,99696.25
2022-08-23T02:59:07.152Z,99702.44
2022-08-23T03:01:37.948Z,99694.38
2022-08-23T03:04:07.415Z,99699.59
2022-08-23T03:06:34.520Z,99696.59
2022-08-23T03:09:01.333Z,99696.75
2022-08-23T03:11:28.491Z,99701.09
2022-08-23T03:13:56.562Z,99690.53
2022-08-23T03:16:24.365Z,99690.72
2022-08-23T03:18:51.240Z,99688.22
2022-08-23T03:21:18.848Z,99689.38
2022-08-23T03:23:45.871Z,99693.03
2022-08-23T03:26:14.709Z,99693.19
2022-08-23T03:28:43.400Z,99691.53
2022-08-23T03:31:11.280Z,99695.22
2022-08-23T03:33:38.411Z,99697.91
2022-08-23T03:36:07.530Z,99696.22
2022-08-23T03:38:34.557Z,99693.38
2022-08-23T03:41:02.254Z,99696.06
2022-08-23T03:43:28.941Z,99696.88
2022-08-23T03:45:55.509Z,99703.91
2022-08-23T03:48:22.549Z,99701.25
2022-08-23T03:50:49.176Z,99703.75
2022-08-23T03:53:16.281Z,99709.97
2022-08-23T03:55:43.774Z,99709.97
2022-08-23T03:58:11.611Z,99710.97
2022-08-23T04:00:39.160Z,99712.81
2022-08-23T04:03:06.041Z,99718.16
2022-08-23T04:05:32.642Z,99719.19
2022-08-23T04:08:00.512Z,99718.31
2022-08-23T04:10:27.186Z,99721.34
2022-08-23T04:12:54.930Z,99726.03
2022-08-23T04:15:22.389Z,99725.53
2022-08-23T04:17:49.151Z,99735.53
2022-08-23T04:20:16.029Z,99723.47
2022-08-23T04:22:42.563Z,99735.34
2022-08-23T04:25:33.646Z,99725.97
2022-08-23T04:27:59.754Z,99735.31
2022-08-23T04:30:27.045Z,99733.94
2022-08-23T04:32:53.615Z,99735.25
2022-08-23T04:35:21.151Z,99726.72
2022-08-23T04:37:47.698Z,99731.56
2022-08-23T04:40:32.711Z,99739.06
2022-08-23T04:42:59.337Z,99737.69
2022-08-23T04:45:27.250Z,99738.03
2022-08-23T04:47:54.331Z,99736.50
2022-08-23T04:50:21.893Z,99736.81
2022-08-23T04:52:48.483Z,99738.81
2022-08-23T04:55:15.519Z,99742.47
2022-08-23T04:57:42.625Z,99746.31
2022-08-23T05:00:12.879Z,99743.78
2022-08-23T05:02:39.583Z,99746.63
2022-08-23T05:05:08.533Z,99750.47
2022-08-23T05:07:42.352Z,99747.78
2022-08-23T05:10:13.586Z,99749.66
2022-08-23T05:12:40.867Z,99752.16
2022-08-23T05:15:09.563Z,99760.00
2022-08-23T05:17:36.817Z,99751.69
2022-08-23T05:20:05.059Z,99754.88
2022-08-23T05:22:36.775Z,99762.75
2022-08-23T05:25:04.408Z,99759.44
2022-08-23T05:27:31.057Z,99768.00
2022-08-23T05:29:57.641Z,99767.69
2022-08-23T05:32:24.396Z,99763.84
2022-08-23T05:34:51.114Z,99769.72
2022-08-23T05:37:18.068Z,99764.22
2022-08-23T05:39:44.752Z,99766.56
2022-08-23T05:42:15.467Z,99765.41
2022-08-23T05:44:43.522Z,99765.91
2022-08-23T05:47:13.334Z,99763.25
2022-08-23T05:49:42.736Z,99765.47
2022-08-23T05:52:12.965Z,99770.50
2022-08-23T05:54:40.398Z,99782.56
2022-08-23T05:57:07.041Z,99773.22
2022-08-23T05:59:33.673Z,99779.94
2022-08-23T06:02:00.330Z,99783.00
2022-08-23T06:04:26.866Z,99790.38
2022-08-23T06:06:56.364Z,99783.69
2022-08-23T06:09:22.984Z,99787.56
2022-08-23T06:11:49.627Z,99794.94
2022-08-23T06:14:16.296Z,99798.81
2022-08-23T06:16:51.605Z,99802.84
2022-08-23T06:19:20.365Z,99801.22
2022-08-23T06:21:47.498Z,99796.19
2022-08-23T06:24:14.518Z,99797.38
2022-08-23T06:26:44.664Z,99802.22
2022-08-23T06:29:14.522Z,99801.63
2022-08-23T06:31:47.331Z,99809.00
2022-08-23T06:34:17.559Z,99798.59
2022-08-23T06:36:47.080Z,99805.31
2022-08-23T06:39:15.622Z,99804.84
2022-08-23T06:41:42.303Z,99813.22
2022-08-23T06:44:09.742Z,99809.19
2022-08-23T06:46:36.860Z,99822.78
2022-08-23T06:49:05.507Z,99819.41
2022-08-23T06:51:38.121Z,99824.31
2022-08-23T06:54:08.250Z,99825.31
2022-08-23T06:56:37.035Z,99825.47
2022-08-23T06:59:06.330Z,99828.31
2022-08-23T07:01:48.487Z,99831.19
2022-08-23T07:04:19.389Z,99827.00
2022-08-23T07:06:46.784Z,99826.16
2022-08-23T07:09:13.902Z,99823.63
2022-08-23T07:11:41.261Z,99824.78
2022-08-23T07:14:11.740Z,99828.59
2022-08-23T07:16:45.368Z,99829.78
2022-08-23T07:19:12.345Z,99824.56
2022-08-23T07:21:38.931Z,99828.41
2022-08-23T07:24:05.996Z,99835.09
2022-08-23T07:26:32.780Z,99835.41
2022-08-23T07:28:59.354Z,99830.38
2022-08-23T07:31:31.974Z,99834.38
2022-08-23T07:33:59.885Z,99831.00
2022-08-23T07:36:29.074Z,99842.97
2022-08-23T07:38:56.754Z,99843.09
2022-08-23T07:41:25.373Z,99843.41
2022-08-23T07:43:51.970Z,99843.72
2022-08-23T07:46:18.706Z,99838.63
2022-08-23T07:48:55.003Z,99838.13
2022-08-23T07:51:22.171Z,99846.31
2022-08-23T07:53:48.757Z,99851.19
2022-08-23T07:56:17.892Z,99851.66
2022-08-23T07:58:45.095Z,99850.13
2022-08-23T08:01:18.252Z,99855.97
2022-08-23T08:03:47.883Z,99852.75
2022-08-23T08:06:19.175Z,99858.44
2022-08-23T08:08:46.487Z,99862.28
2022-08-23T08:11:16.388Z,99865.28
2022-08-23T08:13:45.243Z,99868.47
2022-08-23T08:16:23.202Z,99867.25
2022-08-23T08:18:49.986Z,99870.75
2022-08-23T08:21:18.116Z,99867.50
2022-08-23T08:23:44.676Z,99869.47
2022-08-23T08:26:11.718Z,99875.16
2022-08-23T08:28:39.167Z,99879.81
2022-08-23T08:31:06.308Z,99876.59
2022-08-23T08:33:34.360Z,99877.53
2022-08-23T08:36:03.608Z,99870.56
2022-08-23T08:38:32.082Z,99874.88
2022-08-23T08:41:19.107Z,99881.56
2022-08-23T08:44:01.490Z,99873.06
2022-08-23T08:46:47.478Z,99867.78
2022-08-23T08:56:51.010Z,99868.91
2022-08-23T08:59:43.540Z,99871.88
2022-08-23T09:02:32.781Z,99878.66
2022-08-23T09:05:11.927Z,99874.84
2022-08-23T09:07:44.319Z,99881.44
2022-08-23T09:10:26.996Z,99882.53
2022-08-23T09:12:59.564Z,99877.66
2022-08-23T09:15:35.133Z,99885.66
2022-08-23T09:18:11.041Z,99880.78
2022-08-23T09:20:38.237Z,99886.34
2022-08-23T09:23:12.259Z,99886.44
2022-08-23T09:25:39.148Z,99883.00
2022-08-23T09:28:05.814Z,99880.16
2022-08-23T09:30:55.978Z,99880.41
2022-08-23T09:33:26.294Z,99883.03
2022-08-23T09:36:04.457Z,99887.47
2022-08-23T09:38:37.317Z,99882.41
2022-08-23T09:41:19.346Z,99877.84
2022-08-23T09:43:48.402Z,99876.91
2022-08-23T09:46:25.215Z,99879.66
2022-08-23T09:48:55.226Z,99877.88
2022-08-23T09:51:35.300Z,99874.16
2022-08-23T09:54:33.214Z,99881.31
2022-08-23T09:57:12.043Z,99870.75
2022-08-23T09:59:45.745Z,99874.13
2022-08-23T10:02:17.766Z,99879.16
2022-08-23T10:05:00.144Z,99873.56
2022-08-23T10:07:38.714Z,99870.03
2022-08-23T10:10:21.237Z,99871.53
2022-08-23T10:12:47.800Z,99869.69
2022-08-23T10:15:17.163Z,99864.66
2022-08-23T10:17:59.111Z,99863.44
2022-08-23T10:20:40.333Z,99862.19
2022-08-23T10:23:28.744Z,99866.75
2022-08-23T10:25:58.536Z,99868.41
2022-08-23T10:28:49.792Z,99865.06
2022-08-23T10:31:44.295Z,99859.81
2022-08-23T10:34:50.392Z,99857.50
2022-08-23T10:37:48.375Z,99858.50
2022-08-23T10:40:25.585Z,99861.81
2022-08-23T10:43:04.443Z,99859.25
2022-08-23T10:45:37.210Z,99852.31
2022-08-23T10:48:29.051Z,99856.44
2022-08-23T10:51:05.550Z,99856.16
2022-08-23T10:53:46.978Z,99857.16
2022-08-23T10:56:20.812Z,99853.69
2022-08-23T10:59:01.063Z,99852.25
2022-08-23T11:01:28.493Z,99849.91
2022-08-23T11:04:13.780Z,99851.69
2022-08-23T11:06:45.884Z,99846.28
2022-08-23T11:09:15.185Z,99850.16
2022-08-23T11:11:50.999Z,99848.34
2022-08-23T11:14:41.783Z,99848.19
2022-08-23T11:17:12.447Z,99844.31
2022-08-23T11:20:04.882Z,99847.03
2022-08-23T11:22:56.887Z,99836.69
2022-08-23T11:25:23.454Z,99843.63
2022-08-23T11:27:50.305Z,99839.91
2022-08-23T11:30:32.285Z,99840.44
2022-08-23T11:33:11.241Z,99841.16
2022-08-23T11:35:43.543Z,99834.09
2022-08-23T11:38:13.698Z,99829.16
2022-08-23T11:40:42.406Z,99834.63
2022-08-23T11:43:22.998Z,99834.56
2022-08-23T11:45:49.643Z,99828.69
2022-08-23T11:48:19.371Z,99830.78
2022-08-23T11:50:59.887Z,99837.56
2022-08-23T11:54:00.525Z,99829.75
2022-08-23T11:56:27.827Z,99837.94
2022-08-23T11:59:30.106Z,99834.94
2022-08-23T12:01:59.427Z,99832.75
2022-08-23T12:04:37.466Z,99830.59
2022-08-23T12:07:12.305Z,99832.47
2022-08-23T12:09:41.525Z,99829.38
2022-08-23T12:12:26.591Z,99831.25
2022-08-23T12:14:57.442Z,99825.28
2022-08-23T12:17:28.710Z,99829.50
2022-08-23T12:20:06.621Z,99832.38
2022-08-23T12:23:07.797Z,99825.72
2022-08-23T12:25:35.417Z,99821.00
2022-08-23T12:28:33.489Z,99821.81
2022-08-23T12:31:13.307Z,99825.06
2022-08-23T12:33:46.926Z,99824.22
2022-08-23T12:36:38.335Z,99826.84
2022-08-23T12:39:08.874Z,99822.06
2022-08-23T12:41:56.316Z,99824.38
2022-08-23T12:44:26.586Z,99826.28
2022-08-23T12:46:54.265Z,99819.53
2022-08-23T12:49:29.091Z,99828.34
2022-08-23T12:52:00.376Z,99832.09
2022-08-23T12:54:46.369Z,99828.16
2022-08-23T12:57:19.240Z,99832.78
2022-08-23T12:59:48.686Z,99829.16
2022-08-23T13:02:33.374Z,99828.53
2022-08-23T13:05:13.845Z,99825.44
2022-08-23T13:07:41.636Z,99822.47
2022-08-23T13:10:11.011Z,99817.00
2022-08-23T13:12:38.034Z,99811.38
2022-08-23T13:15:05.417Z,99816.50
2022-08-23T13:17:38.704Z,99810.69
2022-08-23T13:20:22.159Z,99811.16
2022-08-23T13:23:07.376Z,99808.56
2022-08-23T13:25:38.066Z,99809.38
2022-08-23T13:28:23.158Z,99806.41
2022-08-23T13:31:01.943Z,99804.88
2022-08-23T13:33:29.263Z,99805.50
2022-08-23T13:36:21.406Z,99798.50
2022-08-23T13:38:48.672Z,99801.19
2022-08-23T13:41:38.827Z,99802.28
2022-08-23T13:44:08.012Z,99802.41
2022-08-23T13:46:43.347Z,99797.06
2022-08-23T13:49:21.871Z,99806.09
2022-08-23T13:52:24.598Z,99806.59
2022-08-23T13:54:52.687Z,99803.53
2022-08-23T13:57:21.137Z,99801.72
2022-08-23T13:59:55.988Z,99798.28
2022-08-23T14:02:24.147Z,99800.94
2022-08-23T14:04:51.055Z,99803.16
2022-08-23T14:07:18.662Z,99806.81
2022-08-23T14:09:45.498Z,99791.72
2022-08-23T14:12:18.917Z,99790.03
2022-08-23T14:14:46.427Z,99792.53
2022-08-23T14:17:16.649Z,99794.47
2022-08-23T14:22:33.235Z,99800.16
2022-08-23T14:24:59.850Z,99793.16
2022-08-23T14:27:26.438Z,99791.00
2022-08-23T14:29:53.111Z,99794.97
2022-08-23T14:32:20.852Z,99788.28
2022-08-23T14:34:47.434Z,99798.03
2022-08-23T14:38:02.081Z,99787.66
2022-08-23T14:40:01.205Z,99789.69
2022-08-23T14:42:27.868Z,99788.22
2022-08-23T14:44:54.495Z,99787.97
2022-08-23T14:47:21.060Z,99791.59
2022-08-23T14:49:49.875Z,99795.03
2022-08-23T14:52:18.752Z,99794.03
2022-08-23T14:54:45.681Z,99797.00
2022-08-23T14:57:12.414Z,99788.66
2022-08-23T14:59:39.011Z,99789.00
2022-08-23T15:02:08.723Z,99791.25
2022-08-23T15:04:35.352Z,99789.16
2022-08-23T15:07:19.621Z,99788.63
2022-08-23T15:09:49.202Z,99786.69
2022-08-23T15:15:12.389Z,99784.91
2022-08-23T15:17:51.921Z,99783.75
2022-08-23T15:20:26.728Z,99791.59
2022-08-23T15:23:00.364Z,99778.69
2022-08-23T15:25:30.274Z,99786.38
2022-08-23T15:27:57.155Z,99779.34
2022-08-23T15:30:24.291Z,99776.88
2022-08-23T15:32:52.760Z,99780.31
2022-08-23T15:35:24.963Z,99784.22
2022-08-23T15:37:54.474Z,99785.19
2022-08-23T15:40:21.224Z,99765.69
2022-08-23T15:42:47.929Z,99772.19
2022-08-23T15:45:14.568Z,99773.59
2022-08-23T15:47:50.108Z,99775.34
2022-08-23T15:50:18.250Z,99774.84
2022-08-23T15:52:44.821Z,99770.75
2022-08-23T15:55:12.087Z,99766.00
2022-08-23T15:57:43.149Z,99766.16
2022-08-23T16:00:12.462Z,99771.88
2022-08-23T16:03:04.458Z,99773.44
2022-08-23T16:05:25.950Z,99762.41
2022-08-23T16:07:55.411Z,99773.75
2022-08-23T16:10:24.414Z,99771.56
2022-08-23T16:12:52.543Z,99758.38
2022-08-23T16:15:19.218Z,99759.28
2022-08-23T16:17:45.886Z,99756.34
2022-08-23T16:20:12.751Z,99762.81
2022-08-23T16:22:39.815Z,99753.63
2022-08-23T16:25:07.534Z,99760.13
2022-08-23T16:27:34.115Z,99763.56
2022-08-23T16:30:00.672Z,99755.31
2022-08-23T16:32:27.214Z,99762.13
2022-08-23T16:34:54.021Z,99757.81
2022-08-23T16:37:20.926Z,99757.56
2022-08-23T16:39:47.516Z,99754.16
2022-08-23T16:42:14.706Z,99757.59
2022-08-23T16:44:41.319Z,99751.56
2022-08-23T16:47:09.931Z,99750.47
2022-08-23T16:49:37.171Z,99753.72
2022-08-23T16:52:04.058Z,99756.66
2022-08-23T16:54:30.614Z,99759.53
2022-08-23T16:56:57.131Z,99764.53
2022-08-23T16:59:23.751Z,99761.88
2022-08-23T17:02:00.825Z,99765.75
2022-08-23T17:04:37.225Z,99758.13
2022-08-23T17:07:03.901Z,99760.56
2022-08-23T17:09:30.560Z,99765.00
2022-08-23T17:11:58.626Z,99767.47
2022-08-23T17:14:25.660Z,99765.28
2022-08-23T17:16:52.279Z,99766.41
2022-08-23T17:19:18.919Z,99763.94
2022-08-23T17:21:45.580Z,99761.78
2022-08-23T17:24:12.154Z,99762.38
2022-08-23T17:26:39.653Z,99765.41
2022-08-23T17:29:07.415Z,99772.84
2022-08-23T17:31:34.086Z,99772.06
2022-08-23T17:34:03.839Z,99772.16
2022-08-23T17:36:34.824Z,99772.41
2022-08-23T17:39:04.364Z,99778.50
2022-08-23T17:41:33.505Z,99780.44
2022-08-23T17:44:02.462Z,99784.28
2022-08-23T17:46:29.220Z,99783.72
2022-08-23T17:48:57.669Z,99792.94
2022-08-23T17:51:24.630Z,99795.13
2022-08-23T17:53:51.260Z,99803.53
2022-08-23T17:56:17.896Z,99798.31
2022-08-23T17:58:44.457Z,99807.28
2022-08-23T18:01:11.464Z,99804.78
2022-08-23T18:03:38.954Z,99807.72
2022-08-23T18:06:16.850Z,99815.03
2022-08-23T18:08:44.749Z,99820.41
2022-08-23T18:11:11.827Z,99823.06
2022-08-23T18:13:38.460Z,99815.22
2022-08-23T18:16:05.469Z,99823.34
2022-08-23T18:18:32.412Z,99815.69
2022-08-23T18:21:03.332Z,99824.63
2022-08-23T18:23:29.849Z,99824.56
2022-08-23T18:25:56.399Z,99830.75
2022-08-23T18:28:23.609Z,99836.91
2022-08-23T18:30:57.649Z,99835.59
2022-08-23T18:33:31.513Z,99835.25
2022-08-23T18:36:12.023Z,99835.16
2022-08-23T18:38:38.562Z,99832.53
2022-08-23T18:41:05.226Z,99842.47
2022-08-23T18:43:37.203Z,99840.88
2022-08-23T18:46:05.307Z,99848.88
2022-08-23T18:48:31.968Z,99842.47
2022-08-23T18:50:59.418Z,99856.97
2022-08-23T18:53:26.985Z,99860.34
2022-08-23T18:55:53.863Z,99850.16
2022-08-23T18:58:20.999Z,99849.97
2022-08-23T19:00:47.973Z,99856.88
2022-08-23T19:03:17.763Z,99865.72
2022-08-23T19:05:45.924Z,99859.06
2022-08-23T19:08:13.599Z,99858.44
2022-08-23T19:10:41.909Z,99866.97
2022-08-23T19:13:09.597Z,99864.69
2022-08-23T19:15:36.968Z,99873.03
2022-08-23T19:18:04.330Z,99870.53
2022-08-23T19:20:30.902Z,99867.19
2022-08-23T19:22:57.659Z,99871.75
2022-08-23T19:25:24.837Z,99879.06
2022-08-23T19:27:51.786Z,99885.28
2022-08-23T19:30:18.578Z,99879.00
2022-08-23T19:32:45.224Z,99883.56
2022-08-23T19:35:12.933Z,99897.94
2022-08-23T19:37:39.564Z,99897.69
2022-08-23T19:40:07.619Z,99891.25
2022-08-23T19:42:37.043Z,99891.84
2022-08-23T19:45:05.311Z,99894.13
2022-08-23T19:47:32.109Z,99894.72
2022-08-23T19:49:58.709Z,99905.16
2022-08-23T19:52:25.280Z,99894.28
2022-08-23T19:54:51.822Z,99903.66
2022-08-23T19:57:18.480Z,99900.28
2022-08-23T19:59:45.496Z,99896.78
2022-08-23T20:02:14.112Z,99896.53
2022-08-23T20:04:40.938Z,99900.94
2022-08-23T20:07:07.508Z,99896.34
2022-08-23T20:09:34.409Z,99904.06
2022-08-23T20:12:01.830Z,99907.63
2022-08-23T20:14:30.967Z,99914.28
2022-08-23T20:16:57.749Z,99913.63
2022-08-23T20:19:25.148Z,99912.38
2022-08-23T20:21:52.183Z,99913.81
2022-08-23T20:24:28.835Z,99919.56
2022-08-23T20:27:06.018Z,99922.06
2022-08-23T20:29:32.546Z,99922.47
2022-08-23T20:32:00.327Z,99931.19
2022-08-23T20:34:28.248Z,99933.88
2022-08-23T20:36:56.130Z,99929.72
2022-08-23T20:39:24.175Z,99931.38
2022-08-23T20:41:52.120Z,99926.63
2022-08-23T20:44:19.612Z,99931.41
2022-08-23T20:46:50.731Z,99934.53
2022-08-23T20:49:19.956Z,99923.13
2022-08-23T20:51:46.636Z,99922.34
2022-08-23T20:54:14.702Z,99925.31
2022-08-23T20:56:41.343Z,99917.41
2022-08-23T20:59:08.696Z,99926.16
2022-08-23T21:01:36.069Z,99919.91
2022-08-23T21:04:02.861Z,99922.63
2022-08-23T21:06:38.070Z,99927.81
2022-08-23T21:09:04.924Z,99934.69
2022-08-23T21:11:31.534Z,99925.94
2022-08-23T21:13:58.668Z,99930.28
2022-08-23T21:16:26.201Z,99934.47
2022-08-23T21:18:55.359Z,99933.47
2022-08-23T21:21:24.651Z,99941.16
2022-08-23T21:23:51.321Z,99933.69
2022-08-23T21:26:18.407Z,99937.00
2022-08-23T21:28:45.088Z,99937.84
2022-08-23T21:31:20.822Z,99932.44
2022-08-23T21:33:48.350Z,99932.44
2022-08-23T21:36:15.997Z,99939.28
2022-08-23T21:38:42.627Z,99933.47
2022-08-23T21:41:27.540Z,99938.59
2022-08-23T21:43:54.093Z,99937.50
2022-08-23T21:46:20.722Z,99930.97
2022-08-23T21:48:47.309Z,99934.22
2022-08-23T21:51:13.935Z,99939.16
2022-08-23T21:53:40.451Z,99939.31
2022-08-23T21:56:07.170Z,99933.22
2022-08-23T21:58:33.733Z,99942.13
2022-08-23T22:01:00.270Z,99935.63
2022-08-23T22:03:27.317Z,99924.53
2022-08-23T22:05:54.348Z,99931.38
2022-08-23T22:08:20.889Z,99933.81
2022-08-23T22:10:57.160Z,99933.16
2022-08-23T22:13:24.817Z,99938.13
2022-08-23T22:15:51.452Z,99937.50
2022-08-23T22:18:18.057Z,99935.00
2022-08-23T22:20:44.594Z,99944.09
2022-08-23T22:23:11.426Z,99938.91
2022-08-23T22:25:38.117Z,99937.22
2022-08-23T22:28:04.692Z,99937.41
2022-08-23T22:30:31.323Z,99935.75
2022-08-23T22:32:57.907Z,99934.28
2022-08-23T22:35:24.543Z,99940.91
2022-08-23T22:38:12.308Z,99944.66
2022-08-23T22:40:37.646Z,99943.97
2022-08-23T22:43:04.181Z,99949.56
2022-08-23T22:45:30.767Z,99950.63
2022-08-23T22:47:57.355Z,99945.41
2022-08-23T22:50:24.025Z,99950.16
2022-08-23T22:52:50.884Z,99944.09
2022-08-23T22:55:17.696Z,99945.16
2022-08-23T22:57:44.253Z,99946.19
2022-08-23T23:00:11.426Z,99945.53
2022-08-23T23:02:38.947Z,99945.94
2022-08-23T23:05:07.849Z,99951.72
2022-08-23T23:07:53.070Z,99943.16
2022-08-23T23:10:19.667Z,99949.78
2022-08-23T23:12:46.472Z,99959.44
2022-08-23T23:15:13.288Z,99955.63
2022-08-23T23:17:40.315Z,99963.47
2022-08-23T23:20:25.890Z,99958.00
2022-08-23T23:22:52.502Z,99962.91
2022-08-23T23:25:19.175Z,99964.13
2022-08-23T23:27:45.775Z,99960.13
2022-08-23T23:30:12.945Z,99964.06
2022-08-23T23:32:39.686Z,99966.31
2022-08-23T23:35:10.530Z,99973.97
2022-08-23T23:37:37.449Z,99961.00
2022-08-23T23:40:06.083Z,99962.59
2022-08-23T23:42:32.688Z,99958.59
2022-08-23T23:44:59.225Z,99955.44
2022-08-23T23:47:25.776Z,99957.69
2022-08-23T23:49:52.449Z,99967.34
2022-08-23T23:52:19.039Z,99958.09
2022-08-23T23:54:46.297Z,99956.97
2022-08-23T23:57:12.931Z,99961.91
2022-08-23T23:59:39.953Z,99965.34
